sensor_id;sensor_type;location;lat;lon;timestamp;P1;durP1;ratioP1;P2;durP2;ratioP2
41829;SDS011;38614;43.472;23.936;2023-02-01T00:00:39;3.53;;;1.75;;
41829;SDS011;38614;43.472;23.936;2023-02-01T00:03:27;1.85;;;0.90;;
41829;SDS011;38614;43.472;23.936;2023-02-01T00:06:15;3.38;;;1.08;;
41829;SDS011;38614;43.472;23.936;2023-02-01T00:09:02;1.50;;;1.02;;
41829;SDS011;38614;43.472;23.936;2023-02-01T00:11:50;2.35;;;1.35;;
41829;SDS011;38614;43.472;23.936;2023-02-01T00:14:40;2.25;;;1.15;;
41829;SDS011;38614;43.472;23.936;2023-02-01T00:17:33;1.75;;;1.17;;
41829;SDS011;38614;43.472;23.936;2023-02-01T00:20:25;2.17;;;0.98;;
41829;SDS011;38614;43.472;23.936;2023-02-01T00:23:13;3.53;;;0.93;;
41829;SDS011;38614;43.472;23.936;2023-02-01T00:26:01;4.32;;;1.55;;
41829;SDS011;38614;43.472;23.936;2023-02-01T00:28:51;5.68;;;1.33;;
41829;SDS011;38614;43.472;23.936;2023-02-01T00:31:42;2.00;;;1.38;;
41829;SDS011;38614;43.472;23.936;2023-02-01T00:34:30;6.30;;;1.85;;
41829;SDS011;38614;43.472;23.936;2023-02-01T00:37:18;3.53;;;1.52;;
41829;SDS011;38614;43.472;23.936;2023-02-01T00:40:08;5.35;;;1.05;;
41829;SDS011;38614;43.472;23.936;2023-02-01T00:42:56;6.72;;;1.20;;
41829;SDS011;38614;43.472;23.936;2023-02-01T00:45:50;5.68;;;1.83;;
41829;SDS011;38614;43.472;23.936;2023-02-01T00:48:37;3.65;;;1.17;;
41829;SDS011;38614;43.472;23.936;2023-02-01T00:51:26;2.50;;;1.02;;
41829;SDS011;38614;43.472;23.936;2023-02-01T00:54:16;3.45;;;1.33;;
41829;SDS011;38614;43.472;23.936;2023-02-01T00:57:04;6.50;;;1.60;;
41829;SDS011;38614;43.472;23.936;2023-02-01T00:59:51;2.97;;;1.15;;
41829;SDS011;38614;43.472;23.936;2023-02-01T01:02:39;2.22;;;1.65;;
41829;SDS011;38614;43.472;23.936;2023-02-01T01:05:28;4.93;;;1.75;;
41829;SDS011;38614;43.472;23.936;2023-02-01T01:08:16;1.35;;;0.95;;
41829;SDS011;38614;43.472;23.936;2023-02-01T01:11:08;5.90;;;1.58;;
41829;SDS011;38614;43.472;23.936;2023-02-01T01:13:58;2.72;;;2.17;;
41829;SDS011;38614;43.472;23.936;2023-02-01T01:16:47;3.88;;;1.65;;
41829;SDS011;38614;43.472;23.936;2023-02-01T01:19:37;4.65;;;1.80;;
41829;SDS011;38614;43.472;23.936;2023-02-01T01:22:27;5.07;;;2.47;;
41829;SDS011;38614;43.472;23.936;2023-02-01T01:25:18;3.38;;;2.00;;
41829;SDS011;38614;43.472;23.936;2023-02-01T01:28:06;4.70;;;1.95;;
41829;SDS011;38614;43.472;23.936;2023-02-01T01:30:54;2.05;;;1.60;;
41829;SDS011;38614;43.472;23.936;2023-02-01T01:33:42;2.08;;;1.45;;
41829;SDS011;38614;43.472;23.936;2023-02-01T01:36:33;2.05;;;1.23;;
41829;SDS011;38614;43.472;23.936;2023-02-01T01:39:20;2.17;;;1.23;;
41829;SDS011;38614;43.472;23.936;2023-02-01T01:42:10;2.15;;;1.42;;
41829;SDS011;38614;43.472;23.936;2023-02-01T01:45:01;4.07;;;2.03;;
41829;SDS011;38614;43.472;23.936;2023-02-01T01:47:54;3.25;;;2.08;;
41829;SDS011;38614;43.472;23.936;2023-02-01T01:50:50;3.72;;;2.08;;
41829;SDS011;38614;43.472;23.936;2023-02-01T01:53:45;4.10;;;2.25;;
41829;SDS011;38614;43.472;23.936;2023-02-01T01:56:38;4.40;;;2.47;;
41829;SDS011;38614;43.472;23.936;2023-02-01T01:59:27;2.70;;;1.67;;
41829;SDS011;38614;43.472;23.936;2023-02-01T02:02:18;5.57;;;2.83;;
41829;SDS011;38614;43.472;23.936;2023-02-01T02:05:06;8.73;;;3.22;;
41829;SDS011;38614;43.472;23.936;2023-02-01T02:07:57;5.50;;;2.38;;
41829;SDS011;38614;43.472;23.936;2023-02-01T02:10:48;4.07;;;2.22;;
41829;SDS011;38614;43.472;23.936;2023-02-01T02:13:49;1.92;;;1.52;;
41829;SDS011;38614;43.472;23.936;2023-02-01T02:35:16;1.48;;;1.30;;
41829;SDS011;38614;43.472;23.936;2023-02-01T02:41:27;6.15;;;1.88;;
41829;SDS011;38614;43.472;23.936;2023-02-01T02:51:05;5.40;;;3.45;;
41829;SDS011;38614;43.472;23.936;2023-02-01T02:54:30;1.83;;;1.50;;
41829;SDS011;38614;43.472;23.936;2023-02-01T02:57:36;8.60;;;1.92;;
41829;SDS011;38614;43.472;23.936;2023-02-01T03:00:45;1.55;;;1.38;;
41829;SDS011;38614;43.472;23.936;2023-02-01T03:04:05;2.63;;;1.48;;
41829;SDS011;38614;43.472;23.936;2023-02-01T03:07:10;4.47;;;2.47;;
41829;SDS011;38614;43.472;23.936;2023-02-01T03:10:00;1.70;;;0.88;;
41829;SDS011;38614;43.472;23.936;2023-02-01T03:12:55;1.73;;;0.70;;
41829;SDS011;38614;43.472;23.936;2023-02-01T03:15:51;3.00;;;1.10;;
41829;SDS011;38614;43.472;23.936;2023-02-01T03:18:50;3.25;;;0.73;;
41829;SDS011;38614;43.472;23.936;2023-02-01T03:21:44;1.55;;;0.85;;
41829;SDS011;38614;43.472;23.936;2023-02-01T03:24:37;1.33;;;0.60;;
41829;SDS011;38614;43.472;23.936;2023-02-01T03:27:37;2.55;;;0.70;;
41829;SDS011;38614;43.472;23.936;2023-02-01T03:30:32;5.00;;;1.77;;
41829;SDS011;38614;43.472;23.936;2023-02-01T03:33:40;0.73;;;0.50;;
41829;SDS011;38614;43.472;23.936;2023-02-01T03:39:53;0.77;;;0.60;;
41829;SDS011;38614;43.472;23.936;2023-02-01T03:42:54;2.05;;;0.90;;
41829;SDS011;38614;43.472;23.936;2023-02-01T03:45:47;3.30;;;0.70;;
41829;SDS011;38614;43.472;23.936;2023-02-01T03:48:46;6.68;;;0.65;;
41829;SDS011;38614;43.472;23.936;2023-02-01T03:51:39;8.60;;;0.90;;
41829;SDS011;38614;43.472;23.936;2023-02-01T03:54:29;13.20;;;0.60;;
41829;SDS011;38614;43.472;23.936;2023-02-01T03:57:19;4.40;;;1.08;;
41829;SDS011;38614;43.472;23.936;2023-02-01T04:00:16;3.17;;;1.23;;
41829;SDS011;38614;43.472;23.936;2023-02-01T04:03:09;0.82;;;0.30;;
41829;SDS011;38614;43.472;23.936;2023-02-01T04:05:58;3.22;;;1.30;;
41829;SDS011;38614;43.472;23.936;2023-02-01T04:08:47;3.22;;;1.40;;
41829;SDS011;38614;43.472;23.936;2023-02-01T04:11:35;0.82;;;0.65;;
41829;SDS011;38614;43.472;23.936;2023-02-01T04:14:23;6.53;;;0.98;;
41829;SDS011;38614;43.472;23.936;2023-02-01T04:17:11;2.58;;;0.55;;
41829;SDS011;38614;43.472;23.936;2023-02-01T04:20:03;0.98;;;0.65;;
41829;SDS011;38614;43.472;23.936;2023-02-01T04:22:52;3.45;;;0.45;;
41829;SDS011;38614;43.472;23.936;2023-02-01T04:25:39;5.30;;;1.13;;
41829;SDS011;38614;43.472;23.936;2023-02-01T04:28:27;0.63;;;0.35;;
41829;SDS011;38614;43.472;23.936;2023-02-01T04:31:15;0.45;;;0.45;;
41829;SDS011;38614;43.472;23.936;2023-02-01T04:34:04;2.95;;;0.82;;
41829;SDS011;38614;43.472;23.936;2023-02-01T04:36:53;2.00;;;0.55;;
41829;SDS011;38614;43.472;23.936;2023-02-01T04:39:40;3.17;;;1.00;;
41829;SDS011;38614;43.472;23.936;2023-02-01T04:42:28;2.72;;;0.70;;
41829;SDS011;38614;43.472;23.936;2023-02-01T04:45:18;1.20;;;0.80;;
41829;SDS011;38614;43.472;23.936;2023-02-01T04:48:06;2.63;;;1.25;;
41829;SDS011;38614;43.472;23.936;2023-02-01T04:51:13;3.67;;;2.03;;
41829;SDS011;38614;43.472;23.936;2023-02-01T04:56:53;10.35;;;4.45;;
41829;SDS011;38614;43.472;23.936;2023-02-01T04:59:41;4.18;;;3.78;;
41829;SDS011;38614;43.472;23.936;2023-02-01T05:02:29;4.47;;;2.47;;
41829;SDS011;38614;43.472;23.936;2023-02-01T05:05:16;7.75;;;1.95;;
41829;SDS011;38614;43.472;23.936;2023-02-01T05:08:04;7.15;;;3.63;;
41829;SDS011;38614;43.472;23.936;2023-02-01T05:10:52;8.70;;;4.35;;
41829;SDS011;38614;43.472;23.936;2023-02-01T05:13:42;11.32;;;4.65;;
41829;SDS011;38614;43.472;23.936;2023-02-01T05:16:36;10.15;;;5.40;;
41829;SDS011;38614;43.472;23.936;2023-02-01T05:19:26;9.48;;;5.45;;
41829;SDS011;38614;43.472;23.936;2023-02-01T05:22:16;9.07;;;4.90;;
41829;SDS011;38614;43.472;23.936;2023-02-01T05:25:12;9.52;;;5.00;;
41829;SDS011;38614;43.472;23.936;2023-02-01T05:28:08;9.23;;;4.95;;
41829;SDS011;38614;43.472;23.936;2023-02-01T05:31:10;6.15;;;4.38;;
41829;SDS011;38614;43.472;23.936;2023-02-01T05:34:01;10.30;;;4.63;;
41829;SDS011;38614;43.472;23.936;2023-02-01T05:36:50;8.65;;;5.50;;
41829;SDS011;38614;43.472;23.936;2023-02-01T05:39:38;8.15;;;2.97;;
41829;SDS011;38614;43.472;23.936;2023-02-01T05:42:26;5.82;;;3.97;;
41829;SDS011;38614;43.472;23.936;2023-02-01T05:45:13;6.47;;;4.15;;
41829;SDS011;38614;43.472;23.936;2023-02-01T05:48:01;3.97;;;3.67;;
41829;SDS011;38614;43.472;23.936;2023-02-01T05:50:49;5.57;;;3.53;;
41829;SDS011;38614;43.472;23.936;2023-02-01T05:53:37;6.93;;;4.78;;
41829;SDS011;38614;43.472;23.936;2023-02-01T05:56:36;13.45;;;6.28;;
41829;SDS011;38614;43.472;23.936;2023-02-01T05:59:24;8.80;;;4.55;;
41829;SDS011;38614;43.472;23.936;2023-02-01T06:02:13;9.40;;;3.65;;
41829;SDS011;38614;43.472;23.936;2023-02-01T06:05:02;12.57;;;7.10;;
41829;SDS011;38614;43.472;23.936;2023-02-01T06:07:50;14.43;;;5.75;;
41829;SDS011;38614;43.472;23.936;2023-02-01T06:10:39;9.77;;;4.57;;
41829;SDS011;38614;43.472;23.936;2023-02-01T06:13:30;9.77;;;5.10;;
41829;SDS011;38614;43.472;23.936;2023-02-01T06:16:20;21.85;;;8.27;;
41829;SDS011;38614;43.472;23.936;2023-02-01T06:19:10;18.05;;;7.32;;
41829;SDS011;38614;43.472;23.936;2023-02-01T06:22:01;17.20;;;8.95;;
41829;SDS011;38614;43.472;23.936;2023-02-01T06:24:49;20.95;;;10.00;;
41829;SDS011;38614;43.472;23.936;2023-02-01T06:27:37;105.18;;;44.63;;
41829;SDS011;38614;43.472;23.936;2023-02-01T06:30:24;73.53;;;32.95;;
41829;SDS011;38614;43.472;23.936;2023-02-01T06:33:13;62.58;;;23.20;;
41829;SDS011;38614;43.472;23.936;2023-02-01T06:36:03;19.70;;;7.80;;
41829;SDS011;38614;43.472;23.936;2023-02-01T06:38:53;11.95;;;4.90;;
41829;SDS011;38614;43.472;23.936;2023-02-01T06:41:48;3.92;;;2.45;;
41829;SDS011;38614;43.472;23.936;2023-02-01T06:44:41;2.90;;;1.80;;
41829;SDS011;38614;43.472;23.936;2023-02-01T06:47:29;4.65;;;2.72;;
41829;SDS011;38614;43.472;23.936;2023-02-01T06:50:16;4.45;;;2.60;;
41829;SDS011;38614;43.472;23.936;2023-02-01T06:53:04;3.17;;;2.00;;
41829;SDS011;38614;43.472;23.936;2023-02-01T06:55:56;11.48;;;2.60;;
41829;SDS011;38614;43.472;23.936;2023-02-01T06:58:46;18.33;;;1.40;;
41829;SDS011;38614;43.472;23.936;2023-02-01T07:01:34;2.40;;;1.40;;
41829;SDS011;38614;43.472;23.936;2023-02-01T07:04:26;4.30;;;1.60;;
41829;SDS011;38614;43.472;23.936;2023-02-01T07:07:14;2.10;;;0.90;;
41829;SDS011;38614;43.472;23.936;2023-02-01T07:10:03;5.45;;;1.52;;
41829;SDS011;38614;43.472;23.936;2023-02-01T07:12:51;5.50;;;0.98;;
41829;SDS011;38614;43.472;23.936;2023-02-01T07:15:40;7.28;;;1.50;;
41829;SDS011;38614;43.472;23.936;2023-02-01T07:18:29;10.13;;;1.30;;
41829;SDS011;38614;43.472;23.936;2023-02-01T07:21:17;8.38;;;0.80;;
41829;SDS011;38614;43.472;23.936;2023-02-01T07:24:06;6.65;;;1.63;;
41829;SDS011;38614;43.472;23.936;2023-02-01T07:26:54;2.47;;;1.00;;
41829;SDS011;38614;43.472;23.936;2023-02-01T07:29:41;8.48;;;0.60;;
41829;SDS011;38614;43.472;23.936;2023-02-01T07:32:29;0.85;;;0.70;;
41829;SDS011;38614;43.472;23.936;2023-02-01T07:35:17;3.05;;;1.08;;
41829;SDS011;38614;43.472;23.936;2023-02-01T07:38:05;3.22;;;0.50;;
41829;SDS011;38614;43.472;23.936;2023-02-01T07:40:56;2.58;;;0.77;;
41829;SDS011;38614;43.472;23.936;2023-02-01T07:43:46;2.50;;;0.95;;
41829;SDS011;38614;43.472;23.936;2023-02-01T07:46:34;4.07;;;0.80;;
41829;SDS011;38614;43.472;23.936;2023-02-01T07:49:21;3.90;;;1.05;;
41829;SDS011;38614;43.472;23.936;2023-02-01T07:52:12;1.98;;;0.52;;
41829;SDS011;38614;43.472;23.936;2023-02-01T07:55:02;2.22;;;0.60;;
41829;SDS011;38614;43.472;23.936;2023-02-01T07:57:50;3.53;;;0.47;;
41829;SDS011;38614;43.472;23.936;2023-02-01T08:00:38;3.80;;;0.70;;
41829;SDS011;38614;43.472;23.936;2023-02-01T08:04:03;3.60;;;1.17;;
41829;SDS011;38614;43.472;23.936;2023-02-01T08:06:54;6.82;;;0.63;;
41829;SDS011;38614;43.472;23.936;2023-02-01T08:09:44;2.33;;;0.85;;
41829;SDS011;38614;43.472;23.936;2023-02-01T08:12:32;5.00;;;1.35;;
41829;SDS011;38614;43.472;23.936;2023-02-01T08:15:22;3.53;;;0.75;;
41829;SDS011;38614;43.472;23.936;2023-02-01T08:18:13;3.75;;;0.70;;
41829;SDS011;38614;43.472;23.936;2023-02-01T08:21:09;1.77;;;0.63;;
41829;SDS011;38614;43.472;23.936;2023-02-01T08:24:24;8.80;;;0.82;;
41829;SDS011;38614;43.472;23.936;2023-02-01T08:27:14;4.22;;;0.25;;
41829;SDS011;38614;43.472;23.936;2023-02-01T08:30:08;4.60;;;0.40;;
41829;SDS011;38614;43.472;23.936;2023-02-01T08:32:58;4.30;;;0.25;;
41829;SDS011;38614;43.472;23.936;2023-02-01T08:35:46;2.20;;;0.30;;
41829;SDS011;38614;43.472;23.936;2023-02-01T08:38:37;0.40;;;0.30;;
41829;SDS011;38614;43.472;23.936;2023-02-01T08:41:28;1.95;;;0.60;;
41829;SDS011;38614;43.472;23.936;2023-02-01T08:44:25;2.45;;;0.75;;
41829;SDS011;38614;43.472;23.936;2023-02-01T08:47:12;3.38;;;0.50;;
41829;SDS011;38614;43.472;23.936;2023-02-01T08:50:03;1.35;;;0.20;;
41829;SDS011;38614;43.472;23.936;2023-02-01T08:53:00;2.15;;;0.70;;
41829;SDS011;38614;43.472;23.936;2023-02-01T08:55:53;2.83;;;0.73;;
41829;SDS011;38614;43.472;23.936;2023-02-01T08:58:43;5.22;;;0.60;;
41829;SDS011;38614;43.472;23.936;2023-02-01T09:01:31;0.43;;;0.13;;
41829;SDS011;38614;43.472;23.936;2023-02-01T09:04:21;2.38;;;0.20;;
41829;SDS011;38614;43.472;23.936;2023-02-01T09:07:09;1.73;;;0.30;;
41829;SDS011;38614;43.472;23.936;2023-02-01T09:09:58;1.13;;;0.38;;
41829;SDS011;38614;43.472;23.936;2023-02-01T09:12:50;3.67;;;0.50;;
41829;SDS011;38614;43.472;23.936;2023-02-01T09:15:39;2.20;;;0.40;;
41829;SDS011;38614;43.472;23.936;2023-02-01T09:18:30;3.97;;;0.77;;
41829;SDS011;38614;43.472;23.936;2023-02-01T09:24:08;1.27;;;0.20;;
41829;SDS011;38614;43.472;23.936;2023-02-01T09:26:57;2.47;;;0.20;;
41829;SDS011;38614;43.472;23.936;2023-02-01T09:29:48;1.65;;;0.22;;
41829;SDS011;38614;43.472;23.936;2023-02-01T09:32:39;0.70;;;0.13;;
41829;SDS011;38614;43.472;23.936;2023-02-01T09:35:27;7.07;;;0.47;;
41829;SDS011;38614;43.472;23.936;2023-02-01T09:38:14;2.78;;;0.40;;
41829;SDS011;38614;43.472;23.936;2023-02-01T09:41:07;6.57;;;0.22;;
41829;SDS011;38614;43.472;23.936;2023-02-01T09:44:35;6.57;;;0.43;;
41829;SDS011;38614;43.472;23.936;2023-02-01T09:47:45;2.13;;;0.50;;
41829;SDS011;38614;43.472;23.936;2023-02-01T09:50:40;3.65;;;0.65;;
41829;SDS011;38614;43.472;23.936;2023-02-01T09:53:33;7.45;;;0.63;;
41829;SDS011;38614;43.472;23.936;2023-02-01T09:56:39;2.75;;;0.47;;
41829;SDS011;38614;43.472;23.936;2023-02-01T09:59:46;2.13;;;0.30;;
41829;SDS011;38614;43.472;23.936;2023-02-01T10:02:41;3.90;;;0.10;;
41829;SDS011;38614;43.472;23.936;2023-02-01T10:05:40;4.70;;;0.10;;
41829;SDS011;38614;43.472;23.936;2023-02-01T10:09:02;3.05;;;0.25;;
41829;SDS011;38614;43.472;23.936;2023-02-01T10:12:13;1.48;;;0.10;;
41829;SDS011;38614;43.472;23.936;2023-02-01T10:21:31;4.93;;;0.22;;
41829;SDS011;38614;43.472;23.936;2023-02-01T10:24:34;0.57;;;0.17;;
41829;SDS011;38614;43.472;23.936;2023-02-01T10:27:33;0.15;;;0.05;;
41829;SDS011;38614;43.472;23.936;2023-02-01T10:30:29;2.40;;;0.38;;
41829;SDS011;38614;43.472;23.936;2023-02-01T10:33:27;3.10;;;0.20;;
41829;SDS011;38614;43.472;23.936;2023-02-01T10:36:40;2.00;;;0.13;;
41829;SDS011;38614;43.472;23.936;2023-02-01T10:39:38;2.20;;;0.55;;
41829;SDS011;38614;43.472;23.936;2023-02-01T10:42:26;1.00;;;0.30;;
41829;SDS011;38614;43.472;23.936;2023-02-01T10:45:17;3.35;;;0.30;;
41829;SDS011;38614;43.472;23.936;2023-02-01T10:48:07;2.72;;;0.35;;
41829;SDS011;38614;43.472;23.936;2023-02-01T10:51:02;2.57;;;0.63;;
41829;SDS011;38614;43.472;23.936;2023-02-01T10:54:00;2.92;;;0.20;;
41829;SDS011;38614;43.472;23.936;2023-02-01T10:56:56;2.20;;;0.90;;
41829;SDS011;38614;43.472;23.936;2023-02-01T10:59:46;2.90;;;0.40;;
41829;SDS011;38614;43.472;23.936;2023-02-01T11:02:34;3.15;;;0.20;;
41829;SDS011;38614;43.472;23.936;2023-02-01T11:05:25;1.05;;;0.45;;
41829;SDS011;38614;43.472;23.936;2023-02-01T11:11:29;1.33;;;0.22;;
41829;SDS011;38614;43.472;23.936;2023-02-01T11:14:27;0.77;;;0.20;;
41829;SDS011;38614;43.472;23.936;2023-02-01T11:17:23;2.45;;;0.10;;
41829;SDS011;38614;43.472;23.936;2023-02-01T11:23:20;2.42;;;0.50;;
41829;SDS011;38614;43.472;23.936;2023-02-01T11:26:28;3.47;;;0.60;;
41829;SDS011;38614;43.472;23.936;2023-02-01T11:29:18;2.05;;;0.17;;
41829;SDS011;38614;43.472;23.936;2023-02-01T11:32:12;0.82;;;0.13;;
41829;SDS011;38614;43.472;23.936;2023-02-01T11:35:03;3.03;;;0.20;;
41829;SDS011;38614;43.472;23.936;2023-02-01T11:37:57;4.60;;;1.13;;
41829;SDS011;38614;43.472;23.936;2023-02-01T11:40:46;2.13;;;0.40;;
41829;SDS011;38614;43.472;23.936;2023-02-01T11:43:34;0.57;;;0.20;;
41829;SDS011;38614;43.472;23.936;2023-02-01T11:46:23;0.93;;;0.10;;
41829;SDS011;38614;43.472;23.936;2023-02-01T12:05:41;2.97;;;0.20;;
41829;SDS011;38614;43.472;23.936;2023-02-01T12:08:52;1.67;;;0.32;;
41829;SDS011;38614;43.472;23.936;2023-02-01T12:13:18;0.60;;;0.30;;
41829;SDS011;38614;43.472;23.936;2023-02-01T12:16:00;0.77;;;0.17;;
41829;SDS011;38614;43.472;23.936;2023-02-01T12:19:09;1.65;;;0.38;;
41829;SDS011;38614;43.472;23.936;2023-02-01T12:25:16;0.68;;;0.10;;
41829;SDS011;38614;43.472;23.936;2023-02-01T12:28:15;1.13;;;0.20;;
41829;SDS011;38614;43.472;23.936;2023-02-01T12:34:59;2.80;;;0.40;;
41829;SDS011;38614;43.472;23.936;2023-02-01T12:44:45;1.48;;;0.90;;
41829;SDS011;38614;43.472;23.936;2023-02-01T12:51:18;0.75;;;0.10;;
41829;SDS011;38614;43.472;23.936;2023-02-01T12:57:27;6.80;;;1.70;;
41829;SDS011;38614;43.472;23.936;2023-02-01T13:03:23;4.95;;;2.00;;
41829;SDS011;38614;43.472;23.936;2023-02-01T13:06:45;21.70;;;6.28;;
41829;SDS011;38614;43.472;23.936;2023-02-01T13:12:50;20.00;;;4.88;;
41829;SDS011;38614;43.472;23.936;2023-02-01T13:15:45;7.93;;;4.13;;
41829;SDS011;38614;43.472;23.936;2023-02-01T13:18:38;7.82;;;1.60;;
41829;SDS011;38614;43.472;23.936;2023-02-01T13:21:34;4.43;;;1.48;;
41829;SDS011;38614;43.472;23.936;2023-02-01T13:24:31;5.18;;;1.67;;
41829;SDS011;38614;43.472;23.936;2023-02-01T13:27:29;14.18;;;2.15;;
41829;SDS011;38614;43.472;23.936;2023-02-01T13:30:30;2.55;;;0.75;;
41829;SDS011;38614;43.472;23.936;2023-02-01T13:43:18;1.10;;;0.20;;
41829;SDS011;38614;43.472;23.936;2023-02-01T13:46:11;4.90;;;0.38;;
41829;SDS011;38614;43.472;23.936;2023-02-01T13:49:04;0.60;;;0.20;;
41829;SDS011;38614;43.472;23.936;2023-02-01T13:51:56;1.08;;;0.20;;
41829;SDS011;38614;43.472;23.936;2023-02-01T13:54:45;0.98;;;0.47;;
41829;SDS011;38614;43.472;23.936;2023-02-01T14:00:28;0.75;;;0.30;;
41829;SDS011;38614;43.472;23.936;2023-02-01T14:03:42;3.38;;;0.40;;
41829;SDS011;38614;43.472;23.936;2023-02-01T14:06:42;1.23;;;0.60;;
41829;SDS011;38614;43.472;23.936;2023-02-01T14:09:33;3.22;;;0.82;;
41829;SDS011;38614;43.472;23.936;2023-02-01T14:12:43;2.97;;;1.05;;
41829;SDS011;38614;43.472;23.936;2023-02-01T14:15:35;2.85;;;0.90;;
41829;SDS011;38614;43.472;23.936;2023-02-01T14:21:46;6.70;;;0.88;;
41829;SDS011;38614;43.472;23.936;2023-02-01T14:24:52;1.33;;;0.90;;
41829;SDS011;38614;43.472;23.936;2023-02-01T14:27:45;2.30;;;0.80;;
41829;SDS011;38614;43.472;23.936;2023-02-01T14:30:34;2.15;;;0.85;;
41829;SDS011;38614;43.472;23.936;2023-02-01T14:33:24;3.63;;;0.82;;
41829;SDS011;38614;43.472;23.936;2023-02-01T14:36:13;1.13;;;0.68;;
41829;SDS011;38614;43.472;23.936;2023-02-01T14:39:02;11.15;;;1.13;;
41829;SDS011;38614;43.472;23.936;2023-02-01T14:41:54;3.63;;;0.82;;
41829;SDS011;38614;43.472;23.936;2023-02-01T14:44:51;13.55;;;3.38;;
41829;SDS011;38614;43.472;23.936;2023-02-01T14:47:46;9.10;;;2.80;;
41829;SDS011;38614;43.472;23.936;2023-02-01T14:53:34;25.42;;;9.88;;
41829;SDS011;38614;43.472;23.936;2023-02-01T14:56:23;8.13;;;4.32;;
41829;SDS011;38614;43.472;23.936;2023-02-01T14:59:14;7.90;;;2.47;;
41829;SDS011;38614;43.472;23.936;2023-02-01T15:02:07;11.88;;;4.10;;
41829;SDS011;38614;43.472;23.936;2023-02-01T15:05:21;19.13;;;6.88;;
41829;SDS011;38614;43.472;23.936;2023-02-01T15:08:19;17.67;;;8.18;;
41829;SDS011;38614;43.472;23.936;2023-02-01T15:11:14;51.90;;;21.15;;
41829;SDS011;38614;43.472;23.936;2023-02-01T15:14:11;36.33;;;13.32;;
41829;SDS011;38614;43.472;23.936;2023-02-01T15:17:01;18.10;;;8.43;;
41829;SDS011;38614;43.472;23.936;2023-02-01T15:19:56;18.38;;;7.88;;
41829;SDS011;38614;43.472;23.936;2023-02-01T15:25:46;26.50;;;7.55;;
41829;SDS011;38614;43.472;23.936;2023-02-01T15:28:34;26.25;;;10.55;;
41829;SDS011;38614;43.472;23.936;2023-02-01T15:31:35;23.67;;;8.13;;
41829;SDS011;38614;43.472;23.936;2023-02-01T15:34:43;11.30;;;5.55;;
41829;SDS011;38614;43.472;23.936;2023-02-01T15:37:35;2.35;;;1.77;;
41829;SDS011;38614;43.472;23.936;2023-02-01T15:40:23;7.30;;;1.17;;
41829;SDS011;38614;43.472;23.936;2023-02-01T15:43:11;4.65;;;1.88;;
41829;SDS011;38614;43.472;23.936;2023-02-01T15:46:00;5.07;;;1.63;;
41829;SDS011;38614;43.472;23.936;2023-02-01T15:48:53;3.60;;;1.77;;
41829;SDS011;38614;43.472;23.936;2023-02-01T15:51:43;4.88;;;1.98;;
41829;SDS011;38614;43.472;23.936;2023-02-01T15:54:36;11.45;;;1.80;;
41829;SDS011;38614;43.472;23.936;2023-02-01T15:57:38;11.27;;;1.63;;
41829;SDS011;38614;43.472;23.936;2023-02-01T16:00:32;9.23;;;2.92;;
41829;SDS011;38614;43.472;23.936;2023-02-01T16:03:40;6.63;;;2.35;;
41829;SDS011;38614;43.472;23.936;2023-02-01T16:06:32;4.13;;;1.63;;
41829;SDS011;38614;43.472;23.936;2023-02-01T16:09:22;33.15;;;8.70;;
41829;SDS011;38614;43.472;23.936;2023-02-01T16:15:20;51.55;;;13.95;;
41829;SDS011;38614;43.472;23.936;2023-02-01T16:18:12;75.18;;;17.88;;
41829;SDS011;38614;43.472;23.936;2023-02-01T16:21:07;84.43;;;27.20;;
41829;SDS011;38614;43.472;23.936;2023-02-01T16:24:01;43.88;;;14.20;;
41829;SDS011;38614;43.472;23.936;2023-02-01T16:26:52;29.92;;;12.93;;
41829;SDS011;38614;43.472;23.936;2023-02-01T16:29:41;33.08;;;12.82;;
41829;SDS011;38614;43.472;23.936;2023-02-01T16:32:29;54.13;;;20.27;;
41829;SDS011;38614;43.472;23.936;2023-02-01T16:35:23;53.97;;;23.15;;
41829;SDS011;38614;43.472;23.936;2023-02-01T16:38:23;37.65;;;16.33;;
41829;SDS011;38614;43.472;23.936;2023-02-01T16:41:13;39.78;;;14.50;;
41829;SDS011;38614;43.472;23.936;2023-02-01T16:44:03;54.92;;;24.77;;
41829;SDS011;38614;43.472;23.936;2023-02-01T16:46:54;55.95;;;25.63;;
41829;SDS011;38614;43.472;23.936;2023-02-01T16:49:44;56.78;;;22.15;;
41829;SDS011;38614;43.472;23.936;2023-02-01T16:52:34;45.67;;;17.85;;
41829;SDS011;38614;43.472;23.936;2023-02-01T16:55:28;33.47;;;14.38;;
41829;SDS011;38614;43.472;23.936;2023-02-01T16:58:16;34.53;;;13.73;;
41829;SDS011;38614;43.472;23.936;2023-02-01T17:01:04;35.08;;;13.40;;
41829;SDS011;38614;43.472;23.936;2023-02-01T17:03:54;36.10;;;13.55;;
41829;SDS011;38614;43.472;23.936;2023-02-01T17:06:43;40.25;;;14.45;;
41829;SDS011;38614;43.472;23.936;2023-02-01T17:09:36;63.38;;;24.25;;
41829;SDS011;38614;43.472;23.936;2023-02-01T17:12:36;98.05;;;28.02;;
41829;SDS011;38614;43.472;23.936;2023-02-01T17:15:33;51.08;;;17.67;;
41829;SDS011;38614;43.472;23.936;2023-02-01T17:18:22;34.45;;;15.15;;
41829;SDS011;38614;43.472;23.936;2023-02-01T17:21:14;31.20;;;9.68;;
41829;SDS011;38614;43.472;23.936;2023-02-01T17:24:02;14.40;;;5.68;;
41829;SDS011;38614;43.472;23.936;2023-02-01T17:26:50;15.48;;;2.95;;
41829;SDS011;38614;43.472;23.936;2023-02-01T17:29:50;14.35;;;5.35;;
41829;SDS011;38614;43.472;23.936;2023-02-01T17:32:40;12.95;;;4.03;;
41829;SDS011;38614;43.472;23.936;2023-02-01T17:35:28;6.53;;;2.28;;
41829;SDS011;38614;43.472;23.936;2023-02-01T17:38:18;6.40;;;2.80;;
41829;SDS011;38614;43.472;23.936;2023-02-01T17:41:11;5.35;;;2.72;;
41829;SDS011;38614;43.472;23.936;2023-02-01T17:44:07;11.40;;;3.92;;
41829;SDS011;38614;43.472;23.936;2023-02-01T17:46:58;24.08;;;8.95;;
41829;SDS011;38614;43.472;23.936;2023-02-01T17:49:46;20.95;;;6.13;;
41829;SDS011;38614;43.472;23.936;2023-02-01T17:52:37;16.90;;;5.45;;
41829;SDS011;38614;43.472;23.936;2023-02-01T17:55:32;23.77;;;7.72;;
41829;SDS011;38614;43.472;23.936;2023-02-01T17:58:21;15.93;;;6.95;;
41829;SDS011;38614;43.472;23.936;2023-02-01T18:01:20;23.40;;;5.93;;
41829;SDS011;38614;43.472;23.936;2023-02-01T18:04:15;20.60;;;6.40;;
41829;SDS011;38614;43.472;23.936;2023-02-01T18:07:07;30.67;;;10.02;;
41829;SDS011;38614;43.472;23.936;2023-02-01T18:09:58;24.90;;;10.50;;
41829;SDS011;38614;43.472;23.936;2023-02-01T18:12:48;37.33;;;13.98;;
41829;SDS011;38614;43.472;23.936;2023-02-01T18:15:36;36.05;;;15.48;;
41829;SDS011;38614;43.472;23.936;2023-02-01T18:18:25;34.20;;;15.75;;
41829;SDS011;38614;43.472;23.936;2023-02-01T18:21:18;58.80;;;21.35;;
41829;SDS011;38614;43.472;23.936;2023-02-01T18:24:13;45.25;;;15.32;;
41829;SDS011;38614;43.472;23.936;2023-02-01T18:27:06;17.95;;;7.47;;
41829;SDS011;38614;43.472;23.936;2023-02-01T18:29:58;11.32;;;5.75;;
41829;SDS011;38614;43.472;23.936;2023-02-01T18:32:52;6.93;;;3.85;;
41829;SDS011;38614;43.472;23.936;2023-02-01T18:35:40;4.85;;;3.08;;
41829;SDS011;38614;43.472;23.936;2023-02-01T18:38:28;12.65;;;4.28;;
41829;SDS011;38614;43.472;23.936;2023-02-01T18:41:19;28.38;;;6.90;;
41829;SDS011;38614;43.472;23.936;2023-02-01T18:44:14;18.23;;;7.18;;
41829;SDS011;38614;43.472;23.936;2023-02-01T18:47:03;18.13;;;7.32;;
41829;SDS011;38614;43.472;23.936;2023-02-01T18:49:50;26.13;;;9.80;;
41829;SDS011;38614;43.472;23.936;2023-02-01T18:52:40;26.08;;;12.02;;
41829;SDS011;38614;43.472;23.936;2023-02-01T18:55:28;35.15;;;12.45;;
41829;SDS011;38614;43.472;23.936;2023-02-01T18:58:19;19.35;;;8.02;;